Moosonee, Canada
Current Conditions -  °F | °C
As of 5:00 PM on Thursday 23 Oct 2014 (Local Time) from CYMO Reporting Station
Clear Clear  
Wind Chill: 57°   Ceiling: Unl
Heat Index: 57°   Visibility: 9mi
Dew Point: 30°   Wind: 8mph
Humidity: 36%   Direction: 180°S
Pressure: 30.01"   Gusts: NA
Location:  51.27°N, 80.64°W
Report Text: CYMO 232100Z AUTO 18007KT 9SM CLR 14/M01 A3001 RMK SLP163
Loading
Personal Weather Stations






























Interactive Weather Map
Tropical Storm Tracking
New forecast layout! Learn more

10-Day Weather Forecast

Advertisements
Track Severe Weather on mobile